sensor_id;sensor_type;location;lat;lon;timestamp;P1;durP1;ratioP1;P2;durP2;ratioP2
61570;SDS011;47463;49.884;10.010;2024-01-06T00:00:00;3.9;;;2.1;;
61570;SDS011;47463;49.884;10.010;2024-01-06T00:05:00;3.4;;;2;;
61570;SDS011;47463;49.884;10.010;2024-01-06T00:10:00;7.9;;;3.2;;
61570;SDS011;47463;49.884;10.010;2024-01-06T00:15:00;7.9;;;3.2;;
61570;SDS011;47463;49.884;10.010;2024-01-06T00:20:00;5.3;;;2.5;;
61570;SDS011;47463;49.884;10.010;2024-01-06T00:25:00;5;;;2.1;;
61570;SDS011;47463;49.884;10.010;2024-01-06T00:30:00;5;;;2.4;;
61570;SDS011;47463;49.884;10.010;2024-01-06T00:35:00;7.1;;;2.8;;
61570;SDS011;47463;49.884;10.010;2024-01-06T00:40:00;9.9;;;5.4;;
61570;SDS011;47463;49.884;10.010;2024-01-06T00:45:00;9.9;;;5.4;;
61570;SDS011;47463;49.884;10.010;2024-01-06T00:50:00;11.6;;;5.6;;
61570;SDS011;47463;49.884;10.010;2024-01-06T00:55:00;7.9;;;4.4;;
61570;SDS011;47463;49.884;10.010;2024-01-06T01:00:00;5.4;;;3;;
61570;SDS011;47463;49.884;10.010;2024-01-06T01:05:00;5.8;;;3.1;;
61570;SDS011;47463;49.884;10.010;2024-01-06T01:10:00;4.6;;;2.1;;
61570;SDS011;47463;49.884;10.010;2024-01-06T01:15:00;4.6;;;2.1;;
61570;SDS011;47463;49.884;10.010;2024-01-06T01:20:00;4.6;;;1.9;;
61570;SDS011;47463;49.884;10.010;2024-01-06T01:25:00;6.9;;;2.5;;
61570;SDS011;47463;49.884;10.010;2024-01-06T01:30:00;6.2;;;2.6;;
61570;SDS011;47463;49.884;10.010;2024-01-06T01:35:00;5.7;;;2.8;;
61570;SDS011;47463;49.884;10.010;2024-01-06T01:40:00;8.8;;;3.2;;
61570;SDS011;47463;49.884;10.010;2024-01-06T01:45:00;8.8;;;3.2;;
61570;SDS011;47463;49.884;10.010;2024-01-06T01:50:00;6.8;;;3.2;;
61570;SDS011;47463;49.884;10.010;2024-01-06T01:55:00;5.8;;;3.1;;
61570;SDS011;47463;49.884;10.010;2024-01-06T02:00:00;9;;;4.3;;
61570;SDS011;47463;49.884;10.010;2024-01-06T02:05:00;9.5;;;4.8;;
61570;SDS011;47463;49.884;10.010;2024-01-06T02:10:00;9.9;;;4.9;;
61570;SDS011;47463;49.884;10.010;2024-01-06T02:15:00;9.9;;;4.9;;
61570;SDS011;47463;49.884;10.010;2024-01-06T02:20:00;10.1;;;4.3;;
61570;SDS011;47463;49.884;10.010;2024-01-06T02:25:00;9.1;;;4;;
61570;SDS011;47463;49.884;10.010;2024-01-06T02:30:00;7.6;;;4.4;;
61570;SDS011;47463;49.884;10.010;2024-01-06T02:35:00;12.5;;;4.5;;
61570;SDS011;47463;49.884;10.010;2024-01-06T02:40:00;9.5;;;4.5;;
61570;SDS011;47463;49.884;10.010;2024-01-06T02:45:00;9.5;;;4.5;;
61570;SDS011;47463;49.884;10.010;2024-01-06T02:50:00;8.1;;;4.1;;
61570;SDS011;47463;49.884;10.010;2024-01-06T02:55:00;9.7;;;4.7;;
61570;SDS011;47463;49.884;10.010;2024-01-06T03:00:00;8.3;;;4.9;;
61570;SDS011;47463;49.884;10.010;2024-01-06T03:05:00;14.5;;;4.8;;
61570;SDS011;47463;49.884;10.010;2024-01-06T03:10:00;10.2;;;4.5;;
61570;SDS011;47463;49.884;10.010;2024-01-06T03:15:00;10.2;;;4.5;;
61570;SDS011;47463;49.884;10.010;2024-01-06T03:20:00;11;;;4.7;;
61570;SDS011;47463;49.884;10.010;2024-01-06T03:25:00;9.1;;;4.5;;
61570;SDS011;47463;49.884;10.010;2024-01-06T03:30:00;10.3;;;4.2;;
61570;SDS011;47463;49.884;10.010;2024-01-06T03:35:00;8.2;;;4.5;;
61570;SDS011;47463;49.884;10.010;2024-01-06T03:40:00;9.8;;;4.2;;
61570;SDS011;47463;49.884;10.010;2024-01-06T03:45:00;9.8;;;4.2;;
61570;SDS011;47463;49.884;10.010;2024-01-06T03:50:00;8.8;;;4.2;;
61570;SDS011;47463;49.884;10.010;2024-01-06T03:55:00;7.2;;;3.3;;
61570;SDS011;47463;49.884;10.010;2024-01-06T04:00:00;12.6;;;4.1;;
61570;SDS011;47463;49.884;10.010;2024-01-06T04:05:00;11.9;;;3.8;;
61570;SDS011;47463;49.884;10.010;2024-01-06T04:10:00;6.9;;;3.7;;
61570;SDS011;47463;49.884;10.010;2024-01-06T04:15:00;6.9;;;3.7;;
61570;SDS011;47463;49.884;10.010;2024-01-06T04:20:00;6.7;;;3.4;;
61570;SDS011;47463;49.884;10.010;2024-01-06T04:25:00;9.1;;;4.2;;
61570;SDS011;47463;49.884;10.010;2024-01-06T04:30:00;7.9;;;3.6;;
61570;SDS011;47463;49.884;10.010;2024-01-06T04:35:00;9.8;;;3.9;;
61570;SDS011;47463;49.884;10.010;2024-01-06T04:40:00;9.1;;;3.7;;
61570;SDS011;47463;49.884;10.010;2024-01-06T04:45:00;9.1;;;3.7;;
61570;SDS011;47463;49.884;10.010;2024-01-06T04:50:00;10.5;;;3.5;;
61570;SDS011;47463;49.884;10.010;2024-01-06T04:55:00;9.1;;;3.4;;
61570;SDS011;47463;49.884;10.010;2024-01-06T05:00:00;7.7;;;3.5;;
61570;SDS011;47463;49.884;10.010;2024-01-06T05:05:00;5.8;;;3.1;;
61570;SDS011;47463;49.884;10.010;2024-01-06T05:10:00;7;;;3.1;;
61570;SDS011;47463;49.884;10.010;2024-01-06T05:15:00;7;;;3.1;;
61570;SDS011;47463;49.884;10.010;2024-01-06T05:20:00;7.9;;;3.3;;
61570;SDS011;47463;49.884;10.010;2024-01-06T05:25:00;7.6;;;3;;
61570;SDS011;47463;49.884;10.010;2024-01-06T05:30:00;7.6;;;3.1;;
61570;SDS011;47463;49.884;10.010;2024-01-06T05:35:00;6.3;;;2.6;;
61570;SDS011;47463;49.884;10.010;2024-01-06T05:40:00;6.2;;;2.6;;
61570;SDS011;47463;49.884;10.010;2024-01-06T05:45:00;6.2;;;2.6;;
61570;SDS011;47463;49.884;10.010;2024-01-06T05:50:00;7.4;;;3.2;;
61570;SDS011;47463;49.884;10.010;2024-01-06T05:55:00;8.2;;;3.2;;
61570;SDS011;47463;49.884;10.010;2024-01-06T06:00:00;7.5;;;3;;
61570;SDS011;47463;49.884;10.010;2024-01-06T06:05:00;7.3;;;3;;
61570;SDS011;47463;49.884;10.010;2024-01-06T06:10:00;5.6;;;3;;
61570;SDS011;47463;49.884;10.010;2024-01-06T06:15:00;5.6;;;3;;
61570;SDS011;47463;49.884;10.010;2024-01-06T06:20:00;6.7;;;3.2;;
61570;SDS011;47463;49.884;10.010;2024-01-06T06:25:00;5.7;;;2.8;;
61570;SDS011;47463;49.884;10.010;2024-01-06T06:30:00;8.1;;;3.1;;
61570;SDS011;47463;49.884;10.010;2024-01-06T06:35:00;15.8;;;3.2;;
61570;SDS011;47463;49.884;10.010;2024-01-06T06:40:00;9.9;;;3.7;;
61570;SDS011;47463;49.884;10.010;2024-01-06T06:45:00;9.9;;;3.7;;
61570;SDS011;47463;49.884;10.010;2024-01-06T06:50:00;7.9;;;3.8;;
61570;SDS011;47463;49.884;10.010;2024-01-06T06:55:00;6.7;;;3.3;;
61570;SDS011;47463;49.884;10.010;2024-01-06T07:00:00;8.3;;;3.6;;
61570;SDS011;47463;49.884;10.010;2024-01-06T07:05:00;10;;;3.8;;
61570;SDS011;47463;49.884;10.010;2024-01-06T07:10:00;6.8;;;3.7;;
61570;SDS011;47463;49.884;10.010;2024-01-06T07:15:00;6.8;;;3.7;;
61570;SDS011;47463;49.884;10.010;2024-01-06T07:20:00;14.1;;;4.3;;
61570;SDS011;47463;49.884;10.010;2024-01-06T07:25:00;7;;;3.4;;
61570;SDS011;47463;49.884;10.010;2024-01-06T07:30:00;9.6;;;3.7;;
61570;SDS011;47463;49.884;10.010;2024-01-06T07:35:00;10.9;;;5;;
61570;SDS011;47463;49.884;10.010;2024-01-06T07:40:00;10.5;;;4.3;;
61570;SDS011;47463;49.884;10.010;2024-01-06T07:45:00;10.5;;;4.3;;
61570;SDS011;47463;49.884;10.010;2024-01-06T07:50:00;7.5;;;4.3;;
61570;SDS011;47463;49.884;10.010;2024-01-06T07:55:00;9.9;;;4.8;;
61570;SDS011;47463;49.884;10.010;2024-01-06T08:00:00;10.5;;;4.9;;
61570;SDS011;47463;49.884;10.010;2024-01-06T08:05:00;11.6;;;4.9;;
61570;SDS011;47463;49.884;10.010;2024-01-06T08:10:00;8.7;;;5.2;;
61570;SDS011;47463;49.884;10.010;2024-01-06T08:15:00;8.7;;;5.2;;
61570;SDS011;47463;49.884;10.010;2024-01-06T08:20:00;9;;;5.4;;
61570;SDS011;47463;49.884;10.010;2024-01-06T08:25:00;11.1;;;6.1;;
61570;SDS011;47463;49.884;10.010;2024-01-06T08:30:00;11;;;6.2;;
61570;SDS011;47463;49.884;10.010;2024-01-06T08:35:00;10.8;;;6.5;;
61570;SDS011;47463;49.884;10.010;2024-01-06T08:40:00;13.3;;;7.3;;
61570;SDS011;47463;49.884;10.010;2024-01-06T08:45:00;13.3;;;7.3;;
61570;SDS011;47463;49.884;10.010;2024-01-06T08:50:00;13.7;;;7;;
61570;SDS011;47463;49.884;10.010;2024-01-06T08:55:00;13.7;;;7;;
61570;SDS011;47463;49.884;10.010;2024-01-06T09:00:00;11.3;;;6.6;;
61570;SDS011;47463;49.884;10.010;2024-01-06T09:05:00;12.8;;;6.8;;
61570;SDS011;47463;49.884;10.010;2024-01-06T09:10:00;12.6;;;6.4;;
61570;SDS011;47463;49.884;10.010;2024-01-06T09:15:00;12.6;;;6.4;;
61570;SDS011;47463;49.884;10.010;2024-01-06T09:20:00;14.3;;;6.8;;
61570;SDS011;47463;49.884;10.010;2024-01-06T09:25:00;18.5;;;7.7;;
61570;SDS011;47463;49.884;10.010;2024-01-06T09:30:00;15;;;6.6;;
61570;SDS011;47463;49.884;10.010;2024-01-06T09:35:00;10.8;;;5.8;;
61570;SDS011;47463;49.884;10.010;2024-01-06T09:40:00;8.7;;;5.6;;
61570;SDS011;47463;49.884;10.010;2024-01-06T09:45:00;8.7;;;5.6;;
61570;SDS011;47463;49.884;10.010;2024-01-06T09:50:00;12.3;;;5;;
61570;SDS011;47463;49.884;10.010;2024-01-06T09:55:00;10.7;;;5;;
61570;SDS011;47463;49.884;10.010;2024-01-06T10:00:00;10.4;;;5.2;;
61570;SDS011;47463;49.884;10.010;2024-01-06T10:05:00;9.7;;;4.4;;
61570;SDS011;47463;49.884;10.010;2024-01-06T10:10:00;10.1;;;5.9;;
61570;SDS011;47463;49.884;10.010;2024-01-06T10:15:00;10.1;;;5.9;;
61570;SDS011;47463;49.884;10.010;2024-01-06T10:20:00;9.6;;;6;;
61570;SDS011;47463;49.884;10.010;2024-01-06T10:25:00;10.9;;;5.2;;
61570;SDS011;47463;49.884;10.010;2024-01-06T10:30:00;12;;;4.8;;
61570;SDS011;47463;49.884;10.010;2024-01-06T10:35:00;10.4;;;4.1;;
61570;SDS011;47463;49.884;10.010;2024-01-06T10:40:08;8.2;;;4;;
61570;SDS011;47463;49.884;10.010;2024-01-06T10:45:00;8.2;;;4;;
61570;SDS011;47463;49.884;10.010;2024-01-06T10:50:00;8.9;;;4.4;;
61570;SDS011;47463;49.884;10.010;2024-01-06T10:55:00;8.6;;;4.7;;
61570;SDS011;47463;49.884;10.010;2024-01-06T11:00:00;10;;;4.1;;
61570;SDS011;47463;49.884;10.010;2024-01-06T11:05:00;9.3;;;4;;
61570;SDS011;47463;49.884;10.010;2024-01-06T11:10:04;7.9;;;4.2;;
61570;SDS011;47463;49.884;10.010;2024-01-06T11:15:00;7.9;;;4.2;;
61570;SDS011;47463;49.884;10.010;2024-01-06T11:20:04;7.2;;;3.5;;
61570;SDS011;47463;49.884;10.010;2024-01-06T11:25:03;6.9;;;3.5;;
61570;SDS011;47463;49.884;10.010;2024-01-06T11:30:02;10;;;4.2;;
61570;SDS011;47463;49.884;10.010;2024-01-06T11:35:04;7.8;;;3.7;;
61570;SDS011;47463;49.884;10.010;2024-01-06T11:40:00;8.3;;;3.8;;
61570;SDS011;47463;49.884;10.010;2024-01-06T11:45:01;8.3;;;3.8;;
61570;SDS011;47463;49.884;10.010;2024-01-06T11:50:00;24.9;;;7.5;;
61570;SDS011;47463;49.884;10.010;2024-01-06T11:55:00;12.4;;;5.9;;
61570;SDS011;47463;49.884;10.010;2024-01-06T12:00:00;13.5;;;6.1;;
61570;SDS011;47463;49.884;10.010;2024-01-06T12:05:00;7.5;;;5;;
61570;SDS011;47463;49.884;10.010;2024-01-06T12:10:00;9.1;;;5.3;;
61570;SDS011;47463;49.884;10.010;2024-01-06T12:15:00;9.1;;;5.3;;
61570;SDS011;47463;49.884;10.010;2024-01-06T12:20:00;10.9;;;5.7;;
61570;SDS011;47463;49.884;10.010;2024-01-06T12:25:00;10.8;;;5.5;;
61570;SDS011;47463;49.884;10.010;2024-01-06T12:30:00;10.6;;;6.1;;
61570;SDS011;47463;49.884;10.010;2024-01-06T12:35:00;13.1;;;6.5;;
61570;SDS011;47463;49.884;10.010;2024-01-06T12:40:00;10.9;;;6.6;;
61570;SDS011;47463;49.884;10.010;2024-01-06T12:45:00;10.9;;;6.6;;
61570;SDS011;47463;49.884;10.010;2024-01-06T12:50:00;13.9;;;6.9;;
61570;SDS011;47463;49.884;10.010;2024-01-06T12:55:00;10.3;;;6.7;;
61570;SDS011;47463;49.884;10.010;2024-01-06T13:00:00;18.5;;;8.2;;
61570;SDS011;47463;49.884;10.010;2024-01-06T13:05:00;15.4;;;8.3;;
61570;SDS011;47463;49.884;10.010;2024-01-06T13:10:00;15.1;;;7.5;;
61570;SDS011;47463;49.884;10.010;2024-01-06T13:15:00;15.1;;;7.5;;
61570;SDS011;47463;49.884;10.010;2024-01-06T13:20:00;11.8;;;7.5;;
61570;SDS011;47463;49.884;10.010;2024-01-06T13:25:00;12.1;;;7.5;;
61570;SDS011;47463;49.884;10.010;2024-01-06T13:30:00;13.6;;;7.7;;
61570;SDS011;47463;49.884;10.010;2024-01-06T13:35:00;15.6;;;7.8;;
61570;SDS011;47463;49.884;10.010;2024-01-06T13:40:00;13.7;;;8.1;;
61570;SDS011;47463;49.884;10.010;2024-01-06T13:45:00;13.7;;;8.1;;
61570;SDS011;47463;49.884;10.010;2024-01-06T13:50:00;11.8;;;7.9;;
61570;SDS011;47463;49.884;10.010;2024-01-06T13:55:00;14.8;;;7.8;;
61570;SDS011;47463;49.884;10.010;2024-01-06T14:00:00;13.9;;;7.7;;
61570;SDS011;47463;49.884;10.010;2024-01-06T14:05:00;12.7;;;7.3;;
61570;SDS011;47463;49.884;10.010;2024-01-06T14:10:00;14.8;;;7.9;;
61570;SDS011;47463;49.884;10.010;2024-01-06T14:15:00;14.8;;;7.9;;
61570;SDS011;47463;49.884;10.010;2024-01-06T14:20:00;15.4;;;8;;
61570;SDS011;47463;49.884;10.010;2024-01-06T14:25:00;16.2;;;7.8;;
61570;SDS011;47463;49.884;10.010;2024-01-06T14:30:00;12.7;;;8.2;;
61570;SDS011;47463;49.884;10.010;2024-01-06T14:35:00;14;;;7.8;;
61570;SDS011;47463;49.884;10.010;2024-01-06T14:40:00;12.8;;;7.8;;
61570;SDS011;47463;49.884;10.010;2024-01-06T14:45:00;12.8;;;7.8;;
61570;SDS011;47463;49.884;10.010;2024-01-06T14:50:00;13.1;;;7.8;;
61570;SDS011;47463;49.884;10.010;2024-01-06T14:55:00;11.2;;;8;;
61570;SDS011;47463;49.884;10.010;2024-01-06T15:00:00;14.6;;;8.1;;
61570;SDS011;47463;49.884;10.010;2024-01-06T15:05:00;15.5;;;8.6;;
61570;SDS011;47463;49.884;10.010;2024-01-06T15:10:00;15.6;;;8.8;;
61570;SDS011;47463;49.884;10.010;2024-01-06T15:15:00;15.6;;;8.8;;
61570;SDS011;47463;49.884;10.010;2024-01-06T15:20:00;14.4;;;8.4;;
61570;SDS011;47463;49.884;10.010;2024-01-06T15:25:00;16.1;;;8.7;;
61570;SDS011;47463;49.884;10.010;2024-01-06T15:30:00;15.4;;;8.9;;
61570;SDS011;47463;49.884;10.010;2024-01-06T15:35:00;15.7;;;8.5;;
61570;SDS011;47463;49.884;10.010;2024-01-06T15:40:00;16.7;;;9.7;;
61570;SDS011;47463;49.884;10.010;2024-01-06T15:45:00;16.7;;;9.7;;
61570;SDS011;47463;49.884;10.010;2024-01-06T15:50:00;17.6;;;8.9;;
61570;SDS011;47463;49.884;10.010;2024-01-06T15:55:00;15.3;;;9;;
61570;SDS011;47463;49.884;10.010;2024-01-06T16:00:00;19.3;;;9;;
61570;SDS011;47463;49.884;10.010;2024-01-06T16:05:00;15.8;;;8.8;;
61570;SDS011;47463;49.884;10.010;2024-01-06T16:10:00;17.3;;;9.5;;
61570;SDS011;47463;49.884;10.010;2024-01-06T16:15:00;17.3;;;9.5;;
61570;SDS011;47463;49.884;10.010;2024-01-06T16:20:00;13.6;;;8.8;;
61570;SDS011;47463;49.884;10.010;2024-01-06T16:25:00;14;;;9.1;;
61570;SDS011;47463;49.884;10.010;2024-01-06T16:30:00;17.5;;;9.2;;
61570;SDS011;47463;49.884;10.010;2024-01-06T16:35:00;16.5;;;9.2;;
61570;SDS011;47463;49.884;10.010;2024-01-06T16:40:00;19;;;9;;
61570;SDS011;47463;49.884;10.010;2024-01-06T16:45:00;19;;;9;;
61570;SDS011;47463;49.884;10.010;2024-01-06T16:50:00;15.4;;;10.2;;
61570;SDS011;47463;49.884;10.010;2024-01-06T16:55:00;18.8;;;10.2;;
61570;SDS011;47463;49.884;10.010;2024-01-06T17:00:00;19.3;;;11.8;;
61570;SDS011;47463;49.884;10.010;2024-01-06T17:05:00;17.2;;;10.6;;
61570;SDS011;47463;49.884;10.010;2024-01-06T17:10:00;22.7;;;14.2;;
61570;SDS011;47463;49.884;10.010;2024-01-06T17:15:00;22.7;;;14.2;;
61570;SDS011;47463;49.884;10.010;2024-01-06T17:20:00;17.4;;;9.5;;
61570;SDS011;47463;49.884;10.010;2024-01-06T17:25:00;18.1;;;13;;
61570;SDS011;47463;49.884;10.010;2024-01-06T17:30:00;14.3;;;8.8;;
61570;SDS011;47463;49.884;10.010;2024-01-06T17:35:00;18.8;;;10.5;;
61570;SDS011;47463;49.884;10.010;2024-01-06T17:40:00;18.6;;;7.8;;
61570;SDS011;47463;49.884;10.010;2024-01-06T17:45:00;18.6;;;7.8;;
61570;SDS011;47463;49.884;10.010;2024-01-06T17:50:00;15.5;;;7.7;;
61570;SDS011;47463;49.884;10.010;2024-01-06T17:55:00;12.2;;;7.9;;
61570;SDS011;47463;49.884;10.010;2024-01-06T18:00:00;18.7;;;8.8;;
61570;SDS011;47463;49.884;10.010;2024-01-06T18:05:00;17.3;;;8.5;;
61570;SDS011;47463;49.884;10.010;2024-01-06T18:10:00;14;;;7.5;;
61570;SDS011;47463;49.884;10.010;2024-01-06T18:15:00;14;;;7.5;;
61570;SDS011;47463;49.884;10.010;2024-01-06T18:20:00;13.3;;;6.4;;
61570;SDS011;47463;49.884;10.010;2024-01-06T18:25:00;10.2;;;6.4;;
61570;SDS011;47463;49.884;10.010;2024-01-06T18:30:00;10;;;5.9;;
61570;SDS011;47463;49.884;10.010;2024-01-06T18:35:00;10.8;;;6.7;;
61570;SDS011;47463;49.884;10.010;2024-01-06T18:40:00;11.9;;;6.2;;
61570;SDS011;47463;49.884;10.010;2024-01-06T18:45:00;11.9;;;6.2;;
61570;SDS011;47463;49.884;10.010;2024-01-06T18:50:00;10.3;;;6.1;;
61570;SDS011;47463;49.884;10.010;2024-01-06T18:55:00;14.5;;;7.8;;
61570;SDS011;47463;49.884;10.010;2024-01-06T19:00:00;11.4;;;7.2;;
61570;SDS011;47463;49.884;10.010;2024-01-06T19:05:00;12.1;;;6.4;;
61570;SDS011;47463;49.884;10.010;2024-01-06T19:10:00;10.2;;;5.5;;
61570;SDS011;47463;49.884;10.010;2024-01-06T19:15:00;10.2;;;5.5;;
61570;SDS011;47463;49.884;10.010;2024-01-06T19:20:00;12.2;;;5.3;;
61570;SDS011;47463;49.884;10.010;2024-01-06T19:25:00;7.2;;;5.1;;
61570;SDS011;47463;49.884;10.010;2024-01-06T19:30:00;8.9;;;5;;
61570;SDS011;47463;49.884;10.010;2024-01-06T19:35:00;15.5;;;7.3;;
61570;SDS011;47463;49.884;10.010;2024-01-06T19:40:00;11.7;;;6.7;;
61570;SDS011;47463;49.884;10.010;2024-01-06T19:45:00;11.7;;;6.7;;
61570;SDS011;47463;49.884;10.010;2024-01-06T19:50:00;13.9;;;8.3;;
61570;SDS011;47463;49.884;10.010;2024-01-06T19:55:00;13.4;;;8.3;;
61570;SDS011;47463;49.884;10.010;2024-01-06T20:00:00;11.3;;;7.5;;
61570;SDS011;47463;49.884;10.010;2024-01-06T20:05:00;15.2;;;8.4;;
61570;SDS011;47463;49.884;10.010;2024-01-06T20:10:00;14.5;;;8.3;;
61570;SDS011;47463;49.884;10.010;2024-01-06T20:15:00;14.5;;;8.3;;
61570;SDS011;47463;49.884;10.010;2024-01-06T20:20:00;11.3;;;6.4;;
61570;SDS011;47463;49.884;10.010;2024-01-06T20:25:00;10.5;;;5.7;;
61570;SDS011;47463;49.884;10.010;2024-01-06T20:30:00;14.1;;;7.6;;
61570;SDS011;47463;49.884;10.010;2024-01-06T20:35:00;18.5;;;10.9;;
61570;SDS011;47463;49.884;10.010;2024-01-06T20:40:00;20.2;;;12.4;;
61570;SDS011;47463;49.884;10.010;2024-01-06T20:45:00;20.2;;;12.4;;
61570;SDS011;47463;49.884;10.010;2024-01-06T20:50:00;25.8;;;14.7;;
61570;SDS011;47463;49.884;10.010;2024-01-06T20:55:00;26.8;;;15.9;;
61570;SDS011;47463;49.884;10.010;2024-01-06T21:00:00;23;;;13.6;;
61570;SDS011;47463;49.884;10.010;2024-01-06T21:05:00;22.8;;;14.3;;
61570;SDS011;47463;49.884;10.010;2024-01-06T21:10:00;22.9;;;13.6;;
61570;SDS011;47463;49.884;10.010;2024-01-06T21:15:00;22.9;;;13.6;;
61570;SDS011;47463;49.884;10.010;2024-01-06T21:20:00;20.7;;;12.5;;
61570;SDS011;47463;49.884;10.010;2024-01-06T21:25:00;28.1;;;16;;
61570;SDS011;47463;49.884;10.010;2024-01-06T21:30:00;34;;;17.3;;
61570;SDS011;47463;49.884;10.010;2024-01-06T21:35:00;26;;;13.9;;
61570;SDS011;47463;49.884;10.010;2024-01-06T21:40:00;21.8;;;12.8;;
61570;SDS011;47463;49.884;10.010;2024-01-06T21:45:00;21.8;;;12.8;;
61570;SDS011;47463;49.884;10.010;2024-01-06T21:50:00;20.5;;;11.8;;
61570;SDS011;47463;49.884;10.010;2024-01-06T21:55:00;20.6;;;11.6;;
61570;SDS011;47463;49.884;10.010;2024-01-06T22:00:00;23.1;;;13.3;;
61570;SDS011;47463;49.884;10.010;2024-01-06T22:05:00;24.3;;;13.3;;
61570;SDS011;47463;49.884;10.010;2024-01-06T22:10:00;27.8;;;14.4;;
61570;SDS011;47463;49.884;10.010;2024-01-06T22:15:00;27.8;;;14.4;;
61570;SDS011;47463;49.884;10.010;2024-01-06T22:20:00;23.4;;;13.7;;
61570;SDS011;47463;49.884;10.010;2024-01-06T22:25:00;29.2;;;16.2;;
61570;SDS011;47463;49.884;10.010;2024-01-06T22:30:00;24.7;;;13.8;;
61570;SDS011;47463;49.884;10.010;2024-01-06T22:35:00;27.1;;;14.7;;
61570;SDS011;47463;49.884;10.010;2024-01-06T22:40:00;27.2;;;15.1;;
61570;SDS011;47463;49.884;10.010;2024-01-06T22:45:00;27.2;;;15.1;;
61570;SDS011;47463;49.884;10.010;2024-01-06T22:50:00;42.2;;;16.5;;
61570;SDS011;47463;49.884;10.010;2024-01-06T22:55:00;21.8;;;13.3;;
61570;SDS011;47463;49.884;10.010;2024-01-06T23:00:00;20.2;;;12.6;;
61570;SDS011;47463;49.884;10.010;2024-01-06T23:05:00;24;;;12.7;;
61570;SDS011;47463;49.884;10.010;2024-01-06T23:10:00;24.9;;;13.4;;
61570;SDS011;47463;49.884;10.010;2024-01-06T23:15:00;24.9;;;13.4;;
61570;SDS011;47463;49.884;10.010;2024-01-06T23:20:00;22.1;;;11.8;;
61570;SDS011;47463;49.884;10.010;2024-01-06T23:25:00;17.1;;;11;;
61570;SDS011;47463;49.884;10.010;2024-01-06T23:30:00;17.7;;;10;;
61570;SDS011;47463;49.884;10.010;2024-01-06T23:35:00;19;;;10.2;;
61570;SDS011;47463;49.884;10.010;2024-01-06T23:40:00;17.4;;;9.7;;
61570;SDS011;47463;49.884;10.010;2024-01-06T23:45:00;17.4;;;9.7;;
61570;SDS011;47463;49.884;10.010;2024-01-06T23:50:00;19.9;;;10;;
61570;SDS011;47463;49.884;10.010;2024-01-06T23:55:00;25.7;;;11.8;;
